sensor_id;sensor_type;location;lat;lon;timestamp;temperature;humidity
28087;DHT22;15392;48.912;8.380;2023-03-13T00:01:26;17.00;46.70
28087;DHT22;15392;48.912;8.380;2023-03-13T00:03:52;17.00;46.60
28087;DHT22;15392;48.912;8.380;2023-03-13T00:06:20;17.00;46.60
28087;DHT22;15392;48.912;8.380;2023-03-13T00:08:47;17.00;46.70
28087;DHT22;15392;48.912;8.380;2023-03-13T00:11:14;17.00;46.70
28087;DHT22;15392;48.912;8.380;2023-03-13T00:13:41;17.10;46.70
28087;DHT22;15392;48.912;8.380;2023-03-13T00:16:10;17.10;46.70
28087;DHT22;15392;48.912;8.380;2023-03-13T00:18:37;17.10;46.70
28087;DHT22;15392;48.912;8.380;2023-03-13T00:21:06;17.10;46.70
28087;DHT22;15392;48.912;8.380;2023-03-13T00:23:33;17.10;46.60
28087;DHT22;15392;48.912;8.380;2023-03-13T00:26:08;17.10;47.30
28087;DHT22;15392;48.912;8.380;2023-03-13T00:28:37;17.10;46.40
28087;DHT22;15392;48.912;8.380;2023-03-13T00:33:39;17.20;46.40
28087;DHT22;15392;48.912;8.380;2023-03-13T00:36:09;17.10;46.60
28087;DHT22;15392;48.912;8.380;2023-03-13T00:38:37;17.20;46.60
28087;DHT22;15392;48.912;8.380;2023-03-13T00:41:08;17.20;46.60
28087;DHT22;15392;48.912;8.380;2023-03-13T00:43:39;17.20;46.50
28087;DHT22;15392;48.912;8.380;2023-03-13T00:46:06;17.20;46.50
28087;DHT22;15392;48.912;8.380;2023-03-13T00:48:33;17.20;46.50
28087;DHT22;15392;48.912;8.380;2023-03-13T00:50:59;17.20;46.40
28087;DHT22;15392;48.912;8.380;2023-03-13T00:53:26;17.30;46.50
28087;DHT22;15392;48.912;8.380;2023-03-13T00:55:59;17.30;46.60
28087;DHT22;15392;48.912;8.380;2023-03-13T00:58:33;17.30;46.50
28087;DHT22;15392;48.912;8.380;2023-03-13T01:01:07;17.30;46.50
28087;DHT22;15392;48.912;8.380;2023-03-13T01:03:35;17.30;46.30
28087;DHT22;15392;48.912;8.380;2023-03-13T01:06:03;17.30;46.60
28087;DHT22;15392;48.912;8.380;2023-03-13T01:08:30;17.30;46.50
28087;DHT22;15392;48.912;8.380;2023-03-13T01:11:04;17.30;46.50
28087;DHT22;15392;48.912;8.380;2023-03-13T01:13:34;17.40;46.50
28087;DHT22;15392;48.912;8.380;2023-03-13T01:16:03;17.40;46.60
28087;DHT22;15392;48.912;8.380;2023-03-13T01:18:29;17.40;46.60
28087;DHT22;15392;48.912;8.380;2023-03-13T01:20:54;17.40;46.60
28087;DHT22;15392;48.912;8.380;2023-03-13T01:23:20;17.40;46.60
28087;DHT22;15392;48.912;8.380;2023-03-13T01:25:46;17.40;46.60
28087;DHT22;15392;48.912;8.380;2023-03-13T01:28:12;17.40;47.30
28087;DHT22;15392;48.912;8.380;2023-03-13T01:30:37;17.40;46.70
28087;DHT22;15392;48.912;8.380;2023-03-13T01:33:03;17.50;46.80
28087;DHT22;15392;48.912;8.380;2023-03-13T01:35:29;17.50;47.30
28087;DHT22;15392;48.912;8.380;2023-03-13T01:37:55;17.50;46.70
28087;DHT22;15392;48.912;8.380;2023-03-13T01:40:20;17.50;46.80
28087;DHT22;15392;48.912;8.380;2023-03-13T01:42:58;17.50;46.80
28087;DHT22;15392;48.912;8.380;2023-03-13T01:48:22;17.60;46.70
28087;DHT22;15392;48.912;8.380;2023-03-13T01:53:45;17.60;47.10
28087;DHT22;15392;48.912;8.380;2023-03-13T01:56:18;17.60;47.20
28087;DHT22;15392;48.912;8.380;2023-03-13T01:58:48;17.60;47.30
28087;DHT22;15392;48.912;8.380;2023-03-13T02:01:16;17.60;47.50
28087;DHT22;15392;48.912;8.380;2023-03-13T02:03:44;17.60;47.60
28087;DHT22;15392;48.912;8.380;2023-03-13T02:06:11;17.60;47.80
28087;DHT22;15392;48.912;8.380;2023-03-13T02:08:43;17.60;47.80
28087;DHT22;15392;48.912;8.380;2023-03-13T02:11:45;17.60;47.90
28087;DHT22;15392;48.912;8.380;2023-03-13T02:14:13;17.60;48.10
28087;DHT22;15392;48.912;8.380;2023-03-13T02:16:43;17.60;48.10
28087;DHT22;15392;48.912;8.380;2023-03-13T02:19:37;17.60;48.00
28087;DHT22;15392;48.912;8.380;2023-03-13T02:22:15;17.60;48.30
28087;DHT22;15392;48.912;8.380;2023-03-13T02:25:35;17.60;48.30
28087;DHT22;15392;48.912;8.380;2023-03-13T02:28:06;17.50;48.40
28087;DHT22;15392;48.912;8.380;2023-03-13T02:30:35;17.50;48.40
28087;DHT22;15392;48.912;8.380;2023-03-13T02:33:02;17.50;48.50
28087;DHT22;15392;48.912;8.380;2023-03-13T02:35:29;17.50;48.60
28087;DHT22;15392;48.912;8.380;2023-03-13T02:37:59;17.50;48.60
28087;DHT22;15392;48.912;8.380;2023-03-13T02:40:30;17.50;48.70
28087;DHT22;15392;48.912;8.380;2023-03-13T02:43:10;17.50;48.80
28087;DHT22;15392;48.912;8.380;2023-03-13T02:45:40;17.40;48.80
28087;DHT22;15392;48.912;8.380;2023-03-13T02:48:06;17.40;48.80
28087;DHT22;15392;48.912;8.380;2023-03-13T02:50:33;17.40;48.70
28087;DHT22;15392;48.912;8.380;2023-03-13T02:53:04;17.40;48.80
28087;DHT22;15392;48.912;8.380;2023-03-13T02:55:34;17.40;48.90
28087;DHT22;15392;48.912;8.380;2023-03-13T02:58:04;17.40;48.90
28087;DHT22;15392;48.912;8.380;2023-03-13T03:00:31;17.40;48.90
28087;DHT22;15392;48.912;8.380;2023-03-13T03:02:56;17.40;48.90
28087;DHT22;15392;48.912;8.380;2023-03-13T03:05:22;17.40;48.90
28087;DHT22;15392;48.912;8.380;2023-03-13T03:07:49;17.40;48.90
28087;DHT22;15392;48.912;8.380;2023-03-13T03:10:16;17.40;48.90
28087;DHT22;15392;48.912;8.380;2023-03-13T03:12:42;17.40;49.00
28087;DHT22;15392;48.912;8.380;2023-03-13T03:15:08;17.40;49.00
28087;DHT22;15392;48.912;8.380;2023-03-13T03:17:34;17.40;49.10
28087;DHT22;15392;48.912;8.380;2023-03-13T03:20:01;17.40;49.10
28087;DHT22;15392;48.912;8.380;2023-03-13T03:22:29;17.40;49.10
28087;DHT22;15392;48.912;8.380;2023-03-13T03:24:55;17.40;49.10
28087;DHT22;15392;48.912;8.380;2023-03-13T03:27:20;17.40;49.10
28087;DHT22;15392;48.912;8.380;2023-03-13T03:29:46;17.40;49.20
28087;DHT22;15392;48.912;8.380;2023-03-13T03:32:12;17.40;49.20
28087;DHT22;15392;48.912;8.380;2023-03-13T03:34:38;17.40;49.20
28087;DHT22;15392;48.912;8.380;2023-03-13T03:37:03;17.40;49.30
28087;DHT22;15392;48.912;8.380;2023-03-13T03:39:29;17.40;49.30
28087;DHT22;15392;48.912;8.380;2023-03-13T03:41:55;17.40;49.40
28087;DHT22;15392;48.912;8.380;2023-03-13T03:44:20;17.40;49.40
28087;DHT22;15392;48.912;8.380;2023-03-13T03:46:46;17.40;49.50
28087;DHT22;15392;48.912;8.380;2023-03-13T03:49:12;17.40;49.40
28087;DHT22;15392;48.912;8.380;2023-03-13T03:51:38;17.40;49.50
28087;DHT22;15392;48.912;8.380;2023-03-13T03:54:03;17.40;49.50
28087;DHT22;15392;48.912;8.380;2023-03-13T03:56:29;17.40;49.50
28087;DHT22;15392;48.912;8.380;2023-03-13T03:58:55;17.40;49.50
28087;DHT22;15392;48.912;8.380;2023-03-13T04:01:20;17.40;49.40
28087;DHT22;15392;48.912;8.380;2023-03-13T04:03:46;17.40;49.40
28087;DHT22;15392;48.912;8.380;2023-03-13T04:06:13;17.40;49.40
28087;DHT22;15392;48.912;8.380;2023-03-13T04:08:39;17.50;49.40
28087;DHT22;15392;48.912;8.380;2023-03-13T04:11:05;17.50;49.40
28087;DHT22;15392;48.912;8.380;2023-03-13T04:13:30;17.50;49.40
28087;DHT22;15392;48.912;8.380;2023-03-13T04:15:56;17.50;49.40
28087;DHT22;15392;48.912;8.380;2023-03-13T04:18:22;17.50;49.40
28087;DHT22;15392;48.912;8.380;2023-03-13T04:20:47;17.50;49.40
28087;DHT22;15392;48.912;8.380;2023-03-13T04:23:13;17.60;49.40
28087;DHT22;15392;48.912;8.380;2023-03-13T04:25:39;17.60;49.40
28087;DHT22;15392;48.912;8.380;2023-03-13T04:28:05;17.60;49.50
28087;DHT22;15392;48.912;8.380;2023-03-13T04:30:30;17.60;49.50
28087;DHT22;15392;48.912;8.380;2023-03-13T04:32:56;17.60;49.50
28087;DHT22;15392;48.912;8.380;2023-03-13T04:35:22;17.60;49.60
28087;DHT22;15392;48.912;8.380;2023-03-13T04:37:48;17.60;49.50
28087;DHT22;15392;48.912;8.380;2023-03-13T04:40:13;17.60;49.50
28087;DHT22;15392;48.912;8.380;2023-03-13T04:42:40;17.60;49.60
28087;DHT22;15392;48.912;8.380;2023-03-13T04:45:11;17.60;49.50
28087;DHT22;15392;48.912;8.380;2023-03-13T04:47:37;17.60;49.50
28087;DHT22;15392;48.912;8.380;2023-03-13T04:50:03;17.70;49.60
28087;DHT22;15392;48.912;8.380;2023-03-13T04:52:29;17.70;49.50
28087;DHT22;15392;48.912;8.380;2023-03-13T04:54:54;17.70;49.50
28087;DHT22;15392;48.912;8.380;2023-03-13T04:57:20;17.70;49.50
28087;DHT22;15392;48.912;8.380;2023-03-13T04:59:46;17.70;49.60
28087;DHT22;15392;48.912;8.380;2023-03-13T05:02:12;17.70;49.70
28087;DHT22;15392;48.912;8.380;2023-03-13T05:04:38;17.70;49.70
28087;DHT22;15392;48.912;8.380;2023-03-13T05:07:04;17.70;49.70
28087;DHT22;15392;48.912;8.380;2023-03-13T05:09:30;17.70;49.80
28087;DHT22;15392;48.912;8.380;2023-03-13T05:11:58;17.70;49.80
28087;DHT22;15392;48.912;8.380;2023-03-13T05:14:24;17.80;50.00
28087;DHT22;15392;48.912;8.380;2023-03-13T05:16:50;17.80;50.20
28087;DHT22;15392;48.912;8.380;2023-03-13T05:19:16;17.80;50.90
28087;DHT22;15392;48.912;8.380;2023-03-13T05:21:41;17.80;50.20
28087;DHT22;15392;48.912;8.380;2023-03-13T05:24:07;17.80;50.30
28087;DHT22;15392;48.912;8.380;2023-03-13T05:26:33;17.80;50.20
28087;DHT22;15392;48.912;8.380;2023-03-13T05:28:59;17.80;50.20
28087;DHT22;15392;48.912;8.380;2023-03-13T05:31:24;17.80;50.20
28087;DHT22;15392;48.912;8.380;2023-03-13T05:33:50;17.80;50.30
28087;DHT22;15392;48.912;8.380;2023-03-13T05:36:16;17.80;50.30
28087;DHT22;15392;48.912;8.380;2023-03-13T05:38:42;17.70;50.30
28087;DHT22;15392;48.912;8.380;2023-03-13T05:41:07;17.80;50.30
28087;DHT22;15392;48.912;8.380;2023-03-13T05:43:33;17.80;50.30
28087;DHT22;15392;48.912;8.380;2023-03-13T05:45:59;17.80;50.30
28087;DHT22;15392;48.912;8.380;2023-03-13T05:48:24;17.80;50.30
28087;DHT22;15392;48.912;8.380;2023-03-13T05:50:50;17.80;50.30
28087;DHT22;15392;48.912;8.380;2023-03-13T05:53:16;17.80;50.40
28087;DHT22;15392;48.912;8.380;2023-03-13T05:55:42;17.90;50.40
28087;DHT22;15392;48.912;8.380;2023-03-13T05:58:08;17.80;50.30
28087;DHT22;15392;48.912;8.380;2023-03-13T06:00:33;17.80;50.30
28087;DHT22;15392;48.912;8.380;2023-03-13T06:03:00;17.80;50.40
28087;DHT22;15392;48.912;8.380;2023-03-13T06:05:27;17.90;50.40
28087;DHT22;15392;48.912;8.380;2023-03-13T06:07:52;17.90;50.40
28087;DHT22;15392;48.912;8.380;2023-03-13T06:10:18;17.90;50.40
28087;DHT22;15392;48.912;8.380;2023-03-13T06:12:44;17.90;50.40
28087;DHT22;15392;48.912;8.380;2023-03-13T06:15:16;17.90;50.40
28087;DHT22;15392;48.912;8.380;2023-03-13T06:17:42;17.90;50.50
28087;DHT22;15392;48.912;8.380;2023-03-13T06:20:09;17.90;50.50
28087;DHT22;15392;48.912;8.380;2023-03-13T06:22:36;17.90;50.50
28087;DHT22;15392;48.912;8.380;2023-03-13T06:25:01;17.90;50.50
28087;DHT22;15392;48.912;8.380;2023-03-13T06:27:27;17.90;50.60
28087;DHT22;15392;48.912;8.380;2023-03-13T06:29:53;17.90;50.80
28087;DHT22;15392;48.912;8.380;2023-03-13T06:32:19;18.00;50.80
28087;DHT22;15392;48.912;8.380;2023-03-13T06:34:45;18.00;50.80
28087;DHT22;15392;48.912;8.380;2023-03-13T06:37:11;18.00;50.80
28087;DHT22;15392;48.912;8.380;2023-03-13T06:39:36;18.00;50.80
28087;DHT22;15392;48.912;8.380;2023-03-13T06:42:02;17.90;50.70
28087;DHT22;15392;48.912;8.380;2023-03-13T06:44:28;18.00;50.80
28087;DHT22;15392;48.912;8.380;2023-03-13T06:46:54;18.00;50.80
28087;DHT22;15392;48.912;8.380;2023-03-13T06:49:20;18.00;50.90
28087;DHT22;15392;48.912;8.380;2023-03-13T06:51:45;18.00;50.80
28087;DHT22;15392;48.912;8.380;2023-03-13T06:54:11;18.00;50.70
28087;DHT22;15392;48.912;8.380;2023-03-13T06:56:37;18.00;50.80
28087;DHT22;15392;48.912;8.380;2023-03-13T06:59:03;18.00;50.70
28087;DHT22;15392;48.912;8.380;2023-03-13T07:01:29;18.00;50.80
28087;DHT22;15392;48.912;8.380;2023-03-13T07:03:54;18.00;50.80
28087;DHT22;15392;48.912;8.380;2023-03-13T07:06:20;18.00;50.80
28087;DHT22;15392;48.912;8.380;2023-03-13T07:08:46;18.00;50.80
28087;DHT22;15392;48.912;8.380;2023-03-13T07:11:13;18.10;50.90
28087;DHT22;15392;48.912;8.380;2023-03-13T07:13:39;18.10;50.90
28087;DHT22;15392;48.912;8.380;2023-03-13T07:16:10;18.10;50.80
28087;DHT22;15392;48.912;8.380;2023-03-13T07:18:38;18.10;51.60
28087;DHT22;15392;48.912;8.380;2023-03-13T07:21:07;18.10;50.80
28087;DHT22;15392;48.912;8.380;2023-03-13T07:23:34;18.10;50.80
28087;DHT22;15392;48.912;8.380;2023-03-13T07:26:11;18.10;50.80
28087;DHT22;15392;48.912;8.380;2023-03-13T07:28:38;18.20;50.90
28087;DHT22;15392;48.912;8.380;2023-03-13T07:31:10;18.20;50.90
28087;DHT22;15392;48.912;8.380;2023-03-13T07:33:39;18.20;50.80
28087;DHT22;15392;48.912;8.380;2023-03-13T07:36:08;18.20;50.80
28087;DHT22;15392;48.912;8.380;2023-03-13T07:38:34;18.30;50.80
28087;DHT22;15392;48.912;8.380;2023-03-13T07:41:00;18.30;50.80
28087;DHT22;15392;48.912;8.380;2023-03-13T07:43:26;18.30;50.90
28087;DHT22;15392;48.912;8.380;2023-03-13T07:45:58;18.30;50.80
28087;DHT22;15392;48.912;8.380;2023-03-13T07:48:34;18.30;51.00
28087;DHT22;15392;48.912;8.380;2023-03-13T07:51:01;18.30;50.90
28087;DHT22;15392;48.912;8.380;2023-03-13T07:53:28;18.40;51.10
28087;DHT22;15392;48.912;8.380;2023-03-13T07:55:59;18.40;50.80
28087;DHT22;15392;48.912;8.380;2023-03-13T07:58:29;18.40;50.90
28087;DHT22;15392;48.912;8.380;2023-03-13T08:00:56;18.50;50.80
28087;DHT22;15392;48.912;8.380;2023-03-13T08:03:23;18.50;50.80
28087;DHT22;15392;48.912;8.380;2023-03-13T08:06:01;18.50;50.70
28087;DHT22;15392;48.912;8.380;2023-03-13T08:08:29;18.50;50.90
28087;DHT22;15392;48.912;8.380;2023-03-13T08:11:06;18.60;50.70
28087;DHT22;15392;48.912;8.380;2023-03-13T08:13:34;18.60;50.80
28087;DHT22;15392;48.912;8.380;2023-03-13T08:16:11;18.70;50.70
28087;DHT22;15392;48.912;8.380;2023-03-13T08:18:43;18.70;50.70
28087;DHT22;15392;48.912;8.380;2023-03-13T08:21:15;18.80;50.60
28087;DHT22;15392;48.912;8.380;2023-03-13T08:23:46;18.80;51.20
28087;DHT22;15392;48.912;8.380;2023-03-13T08:26:17;18.80;50.50
28087;DHT22;15392;48.912;8.380;2023-03-13T08:28:45;18.80;50.50
28087;DHT22;15392;48.912;8.380;2023-03-13T08:31:36;18.90;50.60
28087;DHT22;15392;48.912;8.380;2023-03-13T08:34:03;18.90;50.60
28087;DHT22;15392;48.912;8.380;2023-03-13T08:36:34;18.90;50.40
28087;DHT22;15392;48.912;8.380;2023-03-13T08:39:04;18.90;50.40
28087;DHT22;15392;48.912;8.380;2023-03-13T08:41:34;19.00;50.30
28087;DHT22;15392;48.912;8.380;2023-03-13T08:44:05;19.00;50.30
28087;DHT22;15392;48.912;8.380;2023-03-13T08:46:33;18.90;50.10
28087;DHT22;15392;48.912;8.380;2023-03-13T08:49:00;19.00;50.10
28087;DHT22;15392;48.912;8.380;2023-03-13T08:51:27;19.00;50.10
28087;DHT22;15392;48.912;8.380;2023-03-13T08:53:54;19.00;50.10
28087;DHT22;15392;48.912;8.380;2023-03-13T08:56:23;19.00;50.10
28087;DHT22;15392;48.912;8.380;2023-03-13T08:58:52;19.00;50.00
28087;DHT22;15392;48.912;8.380;2023-03-13T09:01:20;19.00;50.70
28087;DHT22;15392;48.912;8.380;2023-03-13T09:03:47;19.10;50.10
28087;DHT22;15392;48.912;8.380;2023-03-13T09:06:14;19.10;50.00
28087;DHT22;15392;48.912;8.380;2023-03-13T09:08:40;19.10;50.00
28087;DHT22;15392;48.912;8.380;2023-03-13T09:11:15;19.10;50.00
28087;DHT22;15392;48.912;8.380;2023-03-13T09:13:45;19.10;49.90
28087;DHT22;15392;48.912;8.380;2023-03-13T09:16:19;19.10;49.90
28087;DHT22;15392;48.912;8.380;2023-03-13T09:18:46;19.20;49.90
28087;DHT22;15392;48.912;8.380;2023-03-13T09:21:15;19.10;49.90
28087;DHT22;15392;48.912;8.380;2023-03-13T09:23:45;19.20;50.00
28087;DHT22;15392;48.912;8.380;2023-03-13T09:26:12;19.20;50.00
28087;DHT22;15392;48.912;8.380;2023-03-13T09:28:39;19.30;50.00
28087;DHT22;15392;48.912;8.380;2023-03-13T09:31:09;19.30;50.10
28087;DHT22;15392;48.912;8.380;2023-03-13T09:33:42;19.40;50.10
28087;DHT22;15392;48.912;8.380;2023-03-13T09:36:10;19.50;50.00
28087;DHT22;15392;48.912;8.380;2023-03-13T09:38:37;19.60;50.00
28087;DHT22;15392;48.912;8.380;2023-03-13T09:41:23;19.70;50.00
28087;DHT22;15392;48.912;8.380;2023-03-13T09:47:04;19.90;50.00
28087;DHT22;15392;48.912;8.380;2023-03-13T09:49:38;19.90;50.00
28087;DHT22;15392;48.912;8.380;2023-03-13T09:52:23;20.10;49.90
28087;DHT22;15392;48.912;8.380;2023-03-13T09:54:57;20.20;49.70
28087;DHT22;15392;48.912;8.380;2023-03-13T09:57:35;20.30;49.60
28087;DHT22;15392;48.912;8.380;2023-03-13T10:02:49;20.50;49.40
28087;DHT22;15392;48.912;8.380;2023-03-13T10:05:27;20.60;49.30
28087;DHT22;15392;48.912;8.380;2023-03-13T10:08:17;20.60;49.20
28087;DHT22;15392;48.912;8.380;2023-03-13T10:11:34;20.70;48.90
28087;DHT22;15392;48.912;8.380;2023-03-13T10:14:16;20.70;48.70
28087;DHT22;15392;48.912;8.380;2023-03-13T10:20:45;20.80;48.60
28087;DHT22;15392;48.912;8.380;2023-03-13T10:23:15;20.90;48.80
28087;DHT22;15392;48.912;8.380;2023-03-13T10:25:44;20.80;48.40
28087;DHT22;15392;48.912;8.380;2023-03-13T10:28:17;20.90;48.70
28087;DHT22;15392;48.912;8.380;2023-03-13T10:30:50;20.90;48.60
28087;DHT22;15392;48.912;8.380;2023-03-13T10:33:24;20.90;48.70
28087;DHT22;15392;48.912;8.380;2023-03-13T10:36:07;21.00;48.60
28087;DHT22;15392;48.912;8.380;2023-03-13T10:38:53;21.00;48.60
28087;DHT22;15392;48.912;8.380;2023-03-13T10:41:26;21.00;48.40
28087;DHT22;15392;48.912;8.380;2023-03-13T10:44:00;21.00;48.60
28087;DHT22;15392;48.912;8.380;2023-03-13T10:46:31;21.10;48.50
28087;DHT22;15392;48.912;8.380;2023-03-13T10:49:03;21.10;48.50
28087;DHT22;15392;48.912;8.380;2023-03-13T10:51:37;21.10;48.30
28087;DHT22;15392;48.912;8.380;2023-03-13T10:54:34;21.10;48.30
28087;DHT22;15392;48.912;8.380;2023-03-13T10:59:45;21.20;48.20
28087;DHT22;15392;48.912;8.380;2023-03-13T11:06:19;21.20;48.20
28087;DHT22;15392;48.912;8.380;2023-03-13T11:08:25;21.30;49.00
28087;DHT22;15392;48.912;8.380;2023-03-13T11:10:55;21.40;48.40
28087;DHT22;15392;48.912;8.380;2023-03-13T11:13:29;21.40;48.50
28087;DHT22;15392;48.912;8.380;2023-03-13T11:16:05;21.40;48.30
28087;DHT22;15392;48.912;8.380;2023-03-13T11:18:59;21.50;48.30
28087;DHT22;15392;48.912;8.380;2023-03-13T11:21:38;21.50;48.30
28087;DHT22;15392;48.912;8.380;2023-03-13T11:24:14;21.60;48.10
28087;DHT22;15392;48.912;8.380;2023-03-13T11:26:53;21.60;48.30
28087;DHT22;15392;48.912;8.380;2023-03-13T11:33:04;21.60;48.00
28087;DHT22;15392;48.912;8.380;2023-03-13T11:38:59;21.80;48.10
28087;DHT22;15392;48.912;8.380;2023-03-13T11:53:21;22.10;48.40
28087;DHT22;15392;48.912;8.380;2023-03-13T11:59:21;22.20;47.90
28087;DHT22;15392;48.912;8.380;2023-03-13T12:04:50;22.40;47.70
28087;DHT22;15392;48.912;8.380;2023-03-13T12:10:11;22.50;47.80
28087;DHT22;15392;48.912;8.380;2023-03-13T12:13:04;22.50;47.70
28087;DHT22;15392;48.912;8.380;2023-03-13T12:15:39;22.60;47.90
28087;DHT22;15392;48.912;8.380;2023-03-13T12:18:21;22.70;47.90
28087;DHT22;15392;48.912;8.380;2023-03-13T12:21:13;22.70;47.70
28087;DHT22;15392;48.912;8.380;2023-03-13T12:26:39;22.80;47.70
28087;DHT22;15392;48.912;8.380;2023-03-13T12:32:18;22.90;47.00
28087;DHT22;15392;48.912;8.380;2023-03-13T12:37:52;23.00;47.40
28087;DHT22;15392;48.912;8.380;2023-03-13T12:40:42;23.10;47.20
28087;DHT22;15392;48.912;8.380;2023-03-13T12:43:22;23.10;46.80
28087;DHT22;15392;48.912;8.380;2023-03-13T12:51:58;23.20;46.80
28087;DHT22;15392;48.912;8.380;2023-03-13T13:00:52;23.30;46.80
28087;DHT22;15392;48.912;8.380;2023-03-13T13:06:17;23.20;47.00
28087;DHT22;15392;48.912;8.380;2023-03-13T13:11:34;23.30;46.60
28087;DHT22;15392;48.912;8.380;2023-03-13T13:16:42;23.30;46.20
28087;DHT22;15392;48.912;8.380;2023-03-13T13:32:49;23.50;46.60
28087;DHT22;15392;48.912;8.380;2023-03-13T13:35:28;23.50;46.90
28087;DHT22;15392;48.912;8.380;2023-03-13T13:38:26;23.50;46.40
28087;DHT22;15392;48.912;8.380;2023-03-13T13:41:23;23.50;46.20
28087;DHT22;15392;48.912;8.380;2023-03-13T13:44:21;23.60;45.60
28087;DHT22;15392;48.912;8.380;2023-03-13T13:46:55;23.60;45.90
28087;DHT22;15392;48.912;8.380;2023-03-13T13:49:27;23.60;46.20
28087;DHT22;15392;48.912;8.380;2023-03-13T13:57:17;23.70;45.70
28087;DHT22;15392;48.912;8.380;2023-03-13T13:59:51;23.80;46.30
28087;DHT22;15392;48.912;8.380;2023-03-13T14:02:23;23.80;45.90
28087;DHT22;15392;48.912;8.380;2023-03-13T14:07:41;23.90;45.40
28087;DHT22;15392;48.912;8.380;2023-03-13T14:10:25;23.90;45.80
28087;DHT22;15392;48.912;8.380;2023-03-13T14:12:57;24.00;45.70
28087;DHT22;15392;48.912;8.380;2023-03-13T14:15:27;23.90;46.10
28087;DHT22;15392;48.912;8.380;2023-03-13T14:21:02;24.00;45.40
28087;DHT22;15392;48.912;8.380;2023-03-13T14:23:38;24.00;46.00
28087;DHT22;15392;48.912;8.380;2023-03-13T14:26:26;24.10;45.60
28087;DHT22;15392;48.912;8.380;2023-03-13T14:28:56;24.10;45.40
28087;DHT22;15392;48.912;8.380;2023-03-13T14:33:56;24.10;45.90
28087;DHT22;15392;48.912;8.380;2023-03-13T14:36:24;24.10;46.20
28087;DHT22;15392;48.912;8.380;2023-03-13T14:38:56;24.20;46.30
28087;DHT22;15392;48.912;8.380;2023-03-13T14:41:27;24.20;45.80
28087;DHT22;15392;48.912;8.380;2023-03-13T14:44:13;24.30;45.90
28087;DHT22;15392;48.912;8.380;2023-03-13T14:46:46;24.30;45.90
28087;DHT22;15392;48.912;8.380;2023-03-13T14:51:45;24.30;45.90
28087;DHT22;15392;48.912;8.380;2023-03-13T14:57:17;24.30;45.00
28087;DHT22;15392;48.912;8.380;2023-03-13T14:59:46;24.40;44.90
28087;DHT22;15392;48.912;8.380;2023-03-13T15:02:14;24.40;46.00
28087;DHT22;15392;48.912;8.380;2023-03-13T15:05:04;24.40;45.70
28087;DHT22;15392;48.912;8.380;2023-03-13T15:07:40;24.40;45.70
28087;DHT22;15392;48.912;8.380;2023-03-13T15:12:51;24.50;45.00
28087;DHT22;15392;48.912;8.380;2023-03-13T15:15:17;24.40;45.80
28087;DHT22;15392;48.912;8.380;2023-03-13T15:17:43;24.40;45.70
28087;DHT22;15392;48.912;8.380;2023-03-13T15:20:12;24.40;45.70
28087;DHT22;15392;48.912;8.380;2023-03-13T15:22:40;24.40;45.70
28087;DHT22;15392;48.912;8.380;2023-03-13T15:27:44;24.50;45.30
28087;DHT22;15392;48.912;8.380;2023-03-13T15:30:18;24.50;45.70
28087;DHT22;15392;48.912;8.380;2023-03-13T15:32:47;24.50;45.50
28087;DHT22;15392;48.912;8.380;2023-03-13T15:35:21;24.50;45.60
28087;DHT22;15392;48.912;8.380;2023-03-13T15:37:52;24.50;45.40
28087;DHT22;15392;48.912;8.380;2023-03-13T15:40:19;24.50;45.50
28087;DHT22;15392;48.912;8.380;2023-03-13T15:42:45;24.50;45.60
28087;DHT22;15392;48.912;8.380;2023-03-13T15:45:10;24.50;45.40
28087;DHT22;15392;48.912;8.380;2023-03-13T15:47:37;24.50;45.50
28087;DHT22;15392;48.912;8.380;2023-03-13T15:50:03;24.60;45.40
28087;DHT22;15392;48.912;8.380;2023-03-13T15:52:31;24.60;45.40
28087;DHT22;15392;48.912;8.380;2023-03-13T15:54:58;24.60;45.20
28087;DHT22;15392;48.912;8.380;2023-03-13T15:57:26;24.70;45.10
28087;DHT22;15392;48.912;8.380;2023-03-13T15:59:52;24.70;45.20
28087;DHT22;15392;48.912;8.380;2023-03-13T16:02:21;24.70;45.10
28087;DHT22;15392;48.912;8.380;2023-03-13T16:04:47;24.70;45.00
28087;DHT22;15392;48.912;8.380;2023-03-13T16:07:19;24.70;45.20
28087;DHT22;15392;48.912;8.380;2023-03-13T16:09:45;24.70;44.90
28087;DHT22;15392;48.912;8.380;2023-03-13T16:12:12;24.70;45.20
28087;DHT22;15392;48.912;8.380;2023-03-13T16:14:38;24.70;45.20
28087;DHT22;15392;48.912;8.380;2023-03-13T16:17:18;24.70;45.20
28087;DHT22;15392;48.912;8.380;2023-03-13T16:19:45;24.70;44.30
28087;DHT22;15392;48.912;8.380;2023-03-13T16:22:11;24.70;45.30
28087;DHT22;15392;48.912;8.380;2023-03-13T16:24:38;24.60;45.20
28087;DHT22;15392;48.912;8.380;2023-03-13T16:27:15;24.60;45.20
28087;DHT22;15392;48.912;8.380;2023-03-13T16:29:44;24.60;44.60
28087;DHT22;15392;48.912;8.380;2023-03-13T16:32:12;24.50;45.10
28087;DHT22;15392;48.912;8.380;2023-03-13T16:34:40;24.60;45.20
28087;DHT22;15392;48.912;8.380;2023-03-13T16:37:17;24.50;45.30
28087;DHT22;15392;48.912;8.380;2023-03-13T16:39:44;24.50;44.80
28087;DHT22;15392;48.912;8.380;2023-03-13T16:42:11;24.50;45.30
28087;DHT22;15392;48.912;8.380;2023-03-13T16:44:37;24.40;45.30
28087;DHT22;15392;48.912;8.380;2023-03-13T16:47:22;24.40;45.40
28087;DHT22;15392;48.912;8.380;2023-03-13T16:49:52;24.40;44.70
28087;DHT22;15392;48.912;8.380;2023-03-13T16:52:19;24.30;45.50
28087;DHT22;15392;48.912;8.380;2023-03-13T16:54:47;24.30;45.50
28087;DHT22;15392;48.912;8.380;2023-03-13T16:57:17;24.20;45.40
28087;DHT22;15392;48.912;8.380;2023-03-13T16:59:44;24.30;45.60
28087;DHT22;15392;48.912;8.380;2023-03-13T17:02:15;24.20;45.70
28087;DHT22;15392;48.912;8.380;2023-03-13T17:04:43;24.10;45.30
28087;DHT22;15392;48.912;8.380;2023-03-13T17:09:49;24.00;45.40
28087;DHT22;15392;48.912;8.380;2023-03-13T17:12:16;24.00;45.60
28087;DHT22;15392;48.912;8.380;2023-03-13T17:14:43;24.00;45.90
28087;DHT22;15392;48.912;8.380;2023-03-13T17:17:15;23.90;45.90
28087;DHT22;15392;48.912;8.380;2023-03-13T17:19:44;23.90;45.70
28087;DHT22;15392;48.912;8.380;2023-03-13T17:22:13;23.80;45.70
28087;DHT22;15392;48.912;8.380;2023-03-13T17:24:41;23.80;45.60
28087;DHT22;15392;48.912;8.380;2023-03-13T17:27:15;23.80;45.70
28087;DHT22;15392;48.912;8.380;2023-03-13T17:29:42;23.80;45.00
28087;DHT22;15392;48.912;8.380;2023-03-13T17:32:13;23.70;45.40
28087;DHT22;15392;48.912;8.380;2023-03-13T17:34:40;23.70;45.30
28087;DHT22;15392;48.912;8.380;2023-03-13T17:37:17;23.60;45.40
28087;DHT22;15392;48.912;8.380;2023-03-13T17:39:45;23.60;45.20
28087;DHT22;15392;48.912;8.380;2023-03-13T17:42:12;23.60;45.70
28087;DHT22;15392;48.912;8.380;2023-03-13T17:44:38;23.50;45.70
28087;DHT22;15392;48.912;8.380;2023-03-13T17:47:12;23.50;45.70
28087;DHT22;15392;48.912;8.380;2023-03-13T17:49:39;23.40;45.70
28087;DHT22;15392;48.912;8.380;2023-03-13T17:52:04;23.30;46.20